Time;durP1;ratioP1;P1;durP2;ratioP2;P2;SDS_P1;SDS_P2;PMS_P1;PMS_P2;Temp;Humidity;BMP_temperature;BMP_pressure;BME280_temperature;BME280_humidity;BME280_pressure;Samples;Min_cycle;Max_cycle;Signal;HPM_P1;HPM_P2
2021/01/17 09:11:00;;;;;;;73.40;31.80;;;;;;;-8.24;69.43;99010.23;120907;1113;104372;-70
2021/01/17 09:13:29;;;;;;;71.07;27.80;;;;;;;-8.17;69.98;99012.83;121165;1150;104492;-72
2021/01/17 09:16:00;;;;;;;75.40;32.80;;;;;;;-8.09;69.49;99017.13;120546;1151;104337;-70
2021/01/17 09:18:33;;;;;;;67.70;29.87;;;;;;;-7.99;69.59;99011.99;119931;1151;104441;-71
2021/01/17 09:21:01;;;;;;;74.53;30.07;;;;;;;-7.93;70.34;99017.14;119904;1151;104449;-71
2021/01/17 09:23:29;;;;;;;73.17;29.73;;;;;;;-7.87;69.53;99024.05;120058;1151;104375;-70
2021/01/17 09:26:00;;;;;;;68.13;28.73;;;;;;;-7.79;70.60;99022.34;120040;1151;104446;-70
2021/01/17 09:28:28;;;;;;;72.17;31.90;;;;;;;-7.72;69.95;99036.11;119948;1151;104384;-69
2021/01/17 09:31:00;;;;;;;78.30;31.50;;;;;;;-7.65;70.53;99037.84;120665;1150;104395;-71
2021/01/17 09:33:28;;;;;;;70.83;31.07;;;;;;;-7.55;70.03;99038.70;119863;1151;104343;-70
2021/01/17 09:35:56;;;;;;;76.45;33.80;;;;;;;-7.49;69.22;99036.97;120001;1151;104832;-72
2021/01/17 09:38:24;;;;;;;84.30;33.85;;;;;;;-7.46;70.38;99038.70;119555;1151;104486;-70
2021/01/17 09:40:55;;;;;;;72.43;30.57;;;;;;;-7.46;69.21;99046.45;119701;1150;104340;-72
2021/01/17 09:43:23;;;;;;;73.57;32.37;;;;;;;-7.47;70.40;99036.98;119834;1151;104461;-72
2021/01/17 09:45:58;;;;;;;77.80;32.33;;;;;;;-7.51;70.42;99040.42;119713;1151;104535;-71
2021/01/17 09:48:26;;;;;;;75.03;34.13;;;;;;;-7.50;70.28;99045.58;119749;1150;104407;-71
2021/01/17 09:50:53;;;;;;;87.30;37.80;;;;;;;-7.44;69.99;99046.44;119725;1151;104498;-74
2021/01/17 09:53:19;;;;;;;88.83;39.10;;;;;;;-7.38;69.88;99041.28;119736;1151;104436;-72
2021/01/17 09:55:48;;;;;;;78.17;33.78;;;;;;;-7.34;70.34;99049.05;119896;1151;104367;-72
2021/01/17 09:58:16;;;;;;;74.77;34.30;;;;;;;-7.37;70.15;99048.17;119983;1151;104446;-71
2021/01/17 10:00:44;;;;;;;72.17;30.83;;;;;;;-7.42;70.47;99045.59;119994;1151;104409;-70
2021/01/17 10:03:15;;;;;;;73.33;30.77;;;;;;;-7.38;70.03;99047.33;119991;1151;104452;-71
2021/01/17 10:05:44;;;;;;;88.43;37.87;;;;;;;-7.30;70.44;99044.72;119971;1150;104420;-71
2021/01/17 10:08:15;;;;;;;75.83;31.07;;;;;;;-7.28;69.93;99048.17;119975;1151;104417;-71
2021/01/17 10:10:47;;;;;;;76.13;31.87;;;;;;;-7.22;69.68;99043.00;120082;1151;104420;-75
2021/01/17 10:13:15;;;;;;;69.30;30.55;;;;;;;-7.19;70.12;99042.13;120001;1150;104342;-74
2021/01/17 10:15:43;;;;;;;78.53;32.63;;;;;;;-7.10;70.79;99042.11;120015;1151;104346;-70
2021/01/17 10:18:10;;;;;;;84.60;35.73;;;;;;;-7.05;70.79;99050.73;120000;1151;104494;-71
2021/01/17 10:20:39;;;;;;;78.63;32.33;;;;;;;-6.97;70.45;99048.12;119999;1151;104471;-71
2021/01/17 10:23:12;;;;;;;63.50;27.93;;;;;;;-6.95;69.89;99050.72;119931;1151;104389;-73
2021/01/17 10:25:45;;;;;;;69.43;30.10;;;;;;;-6.96;70.35;99044.67;119629;1151;104369;-70
2021/01/17 10:28:13;;;;;;;75.53;32.40;;;;;;;-6.90;70.19;99042.08;119912;1151;104417;-71
2021/01/17 10:30:42;;;;;;;78.33;32.83;;;;;;;-6.82;69.87;99039.45;119966;1149;104430;-70
2021/01/17 10:33:12;;;;;;;68.67;31.70;;;;;;;-6.79;69.55;99039.45;119966;1150;104388;-70
2021/01/17 10:35:46;;;;;;;78.03;33.33;;;;;;;-6.79;69.53;99047.21;119891;1151;104381;-65
2021/01/17 10:38:16;;;;;;;80.63;33.40;;;;;;;-6.77;70.30;99045.48;119939;1151;104557;-71
2021/01/17 10:40:44;;;;;;;70.70;30.60;;;;;;;-6.69;70.36;99039.43;119848;1151;104462;-70
2021/01/17 10:43:31;;;;;;;79.47;34.40;;;;;;;-6.67;69.85;99046.31;119943;1151;104444;-70
2021/01/17 10:46:03;;;;;;;78.23;35.07;;;;;;;-6.76;69.30;99044.62;119892;1151;104377;-72
2021/01/17 10:48:36;;;;;;;72.97;31.87;;;;;;;-6.77;69.53;99049.81;119871;1151;104394;-74
2021/01/17 10:51:09;;;;;;;80.73;34.73;;;;;;;-6.77;69.40;99050.66;119957;1151;104441;-73
2021/01/17 10:53:39;;;;;;;69.23;32.50;;;;;;;-6.78;70.34;99048.09;119944;1151;104408;-72
2021/01/17 10:56:10;;;;;;;79.43;35.13;;;;;;;-6.80;69.60;99054.99;119801;1151;104373;-72
2021/01/17 10:58:47;;;;;;;78.60;33.80;;;;;;;-6.81;70.49;99061.03;119936;1151;104488;-69
2021/01/17 11:01:15;;;;;;;74.33;33.53;;;;;;;-6.81;70.34;99061.03;119911;1151;104392;-73
2021/01/17 11:03:44;;;;;;;76.93;33.90;;;;;;;-6.82;69.50;99051.55;119845;1151;104439;-72
2021/01/17 11:06:23;;;;;;;77.23;34.60;;;;;;;-6.81;69.69;99053.27;119899;1151;104367;-72
2021/01/17 11:08:57;;;;;;;72.47;32.80;;;;;;;-6.81;69.42;99050.69;119866;1151;104371;-70
2021/01/17 11:11:29;;;;;;;73.70;34.70;;;;;;;-6.81;70.21;99046.36;119813;1151;104467;-68
2021/01/17 11:14:05;;;;;;;76.95;33.10;;;;;;;-6.87;69.30;99036.02;119881;1151;104452;-71
2021/01/17 11:16:44;;;;;;;77.80;35.37;;;;;;;-6.86;69.46;99055.84;119931;1151;104354;-72
2021/01/17 11:19:13;;;;;;;82.13;34.40;;;;;;;-6.89;69.70;99053.27;119873;1151;104546;-72
2021/01/17 11:21:43;;;;;;;74.90;34.77;;;;;;;-6.82;70.44;99062.73;119809;1151;104342;-71
2021/01/17 11:24:12;;;;;;;84.65;35.90;;;;;;;-6.76;69.67;99054.97;119818;1151;104448;-72
2021/01/17 11:26:40;;;;;;;82.43;36.43;;;;;;;-6.71;69.54;99059.27;119834;1151;104442;-72
2021/01/17 11:29:16;;;;;;;88.93;37.77;;;;;;;-6.63;69.74;99060.12;119836;1151;104475;-72
2021/01/17 11:31:45;;;;;;;91.07;36.77;;;;;;;-6.53;70.05;99053.17;119871;1151;104508;-73
2021/01/17 11:34:15;;;;;;;87.97;39.20;;;;;;;-6.45;69.93;99054.86;119882;1151;104340;-74
2021/01/17 11:36:43;;;;;;;83.40;35.07;;;;;;;-6.37;70.45;99052.26;119956;1151;104525;-75
2021/01/17 11:39:19;;;;;;;67.05;30.50;;;;;;;-6.33;70.14;99053.09;119920;1151;104345;-71
2021/01/17 11:41:47;;;;;;;68.63;29.87;;;;;;;-6.29;70.30;99047.04;119984;1151;104345;-72
2021/01/17 11:44:18;;;;;;;73.55;32.50;;;;;;;-6.25;70.17;99058.23;119841;1151;104582;-71
2021/01/17 11:46:47;;;;;;;70.43;30.43;;;;;;;-6.30;70.04;99053.92;119620;1151;104432;-71
2021/01/17 11:49:20;;;;;;;83.07;34.20;;;;;;;-6.32;70.06;99055.69;119839;1151;104360;-70
2021/01/17 11:51:47;;;;;;;82.22;34.33;;;;;;;-6.35;69.80;99062.59;119852;1151;104353;-70
2021/01/17 11:54:26;;;;;;;82.80;35.70;;;;;;;-6.39;70.20;99066.94;119830;1150;104370;-72
2021/01/17 11:57:11;;;;;;;75.90;35.17;;;;;;;-6.39;69.49;99063.47;119808;1150;104486;-71
2021/01/17 11:59:39;;;;;;;74.97;32.93;;;;;;;-6.36;69.70;99064.34;119707;1151;104444;-70
2021/01/17 12:02:15;;;;;;;76.75;31.75;;;;;;;-6.32;69.57;99059.99;119739;1149;104416;-71
2021/01/17 12:04:45;;;;;;;70.53;31.97;;;;;;;-6.35;69.50;99067.77;119797;1151;104468;-73
2021/01/17 12:07:13;;;;;;;71.77;31.43;;;;;;;-6.39;69.56;99071.23;119798;1151;104422;-72
2021/01/17 12:09:40;;;;;;;72.83;34.80;;;;;;;-6.37;69.54;99078.14;119832;1151;104348;-70
2021/01/17 12:12:16;;;;;;;69.67;30.53;;;;;;;-6.35;70.15;99079.00;119800;1151;104442;-71
2021/01/17 12:14:45;;;;;;;67.27;29.50;;;;;;;-6.33;69.39;99087.63;119859;1151;104420;-71
2021/01/17 12:17:12;;;;;;;66.37;30.17;;;;;;;-6.31;70.41;99079.84;119909;1151;104522;-73
2021/01/17 12:19:41;;;;;;;70.57;31.10;;;;;;;-6.29;69.87;99083.28;119876;1151;104481;-72
2021/01/17 12:22:09;;;;;;;75.47;32.77;;;;;;;-6.28;69.66;99087.59;119861;1151;104423;-71
2021/01/17 12:24:38;;;;;;;71.53;32.20;;;;;;;-6.28;69.65;99085.84;119830;1149;104554;-72
2021/01/17 12:27:07;;;;;;;75.80;33.33;;;;;;;-6.31;70.11;99090.19;119680;1151;104377;-70
2021/01/17 12:29:34;;;;;;;78.47;34.50;;;;;;;-6.32;70.33;99084.17;119670;1151;104465;-71
2021/01/17 12:32:01;;;;;;;71.47;32.20;;;;;;;-6.28;69.64;99090.18;119842;1151;104329;-71
2021/01/17 12:34:28;;;;;;;84.57;38.33;;;;;;;-6.26;69.92;99093.63;119837;1149;104416;-71
2021/01/17 12:36:55;;;;;;;82.27;35.73;;;;;;;-6.24;69.49;99096.20;119836;1150;104450;-72
2021/01/17 12:39:22;;;;;;;84.97;38.37;;;;;;;-6.22;70.20;99099.64;119788;1151;104487;-72
2021/01/17 12:41:55;;;;;;;80.30;35.20;;;;;;;-6.27;69.40;99099.67;119907;1150;104478;-71
2021/01/17 12:44:22;;;;;;;77.50;35.30;;;;;;;-6.25;69.99;99100.53;119819;1151;104459;-72
2021/01/17 12:46:49;;;;;;;79.70;34.85;;;;;;;-6.27;69.52;99099.67;119875;1151;105034;-69
2021/01/17 12:49:18;;;;;;;77.90;33.83;;;;;;;-6.28;69.55;99103.13;119883;1150;104353;-70
2021/01/17 12:51:46;;;;;;;82.90;36.00;;;;;;;-6.28;70.07;99103.13;119893;1150;104368;-71
2021/01/17 12:54:14;;;;;;;89.40;36.80;;;;;;;-6.30;69.74;99102.27;119782;1151;104357;-70
2021/01/17 12:56:41;;;;;;;79.10;36.93;;;;;;;-6.33;69.89;99108.33;119945;1151;104372;-70
2021/01/17 12:59:09;;;;;;;69.30;31.93;;;;;;;-6.40;69.23;99116.10;119877;1151;104481;-69
2021/01/17 13:01:35;;;;;;;77.43;33.40;;;;;;;-6.40;69.72;99113.52;119804;1151;104345;-75
2021/01/17 13:04:03;;;;;;;64.07;28.70;;;;;;;-6.44;69.97;99110.09;119866;1151;104414;-72
2021/01/17 13:06:32;;;;;;;64.30;29.07;;;;;;;-6.41;69.36;99116.97;119776;1151;104444;-71
2021/01/17 13:08:59;;;;;;;64.83;29.00;;;;;;;-6.39;69.31;99123.87;119868;1151;104490;-71
2021/01/17 13:11:26;;;;;;;56.80;25.90;;;;;;;-6.44;69.26;99128.20;119788;1151;104519;-70
2021/01/17 13:13:52;;;;;;;51.50;23.18;;;;;;;-6.46;69.28;99123.02;119751;1151;104420;-69
2021/01/17 13:16:21;;;;;;;58.67;23.27;;;;;;;-6.44;70.07;99126.47;119907;1151;105463;-70
2021/01/17 13:18:50;;;;;;;65.32;26.25;;;;;;;-6.41;70.09;99123.02;119821;1150;104442;-70
2021/01/17 13:21:17;;;;;;;58.80;23.67;;;;;;;-6.44;69.81;99123.87;119814;1150;104350;-71
2021/01/17 13:23:45;;;;;;;50.60;23.17;;;;;;;-6.46;69.25;99130.78;119828;1150;104658;-69
2021/01/17 13:26:18;;;;;;;56.43;24.13;;;;;;;-6.50;69.13;99129.06;119848;1151;104376;-69
2021/01/17 13:28:46;;;;;;;50.03;22.33;;;;;;;-6.48;69.00;99129.08;119896;1151;104519;-68
2021/01/17 13:31:13;;;;;;;53.40;23.50;;;;;;;-6.51;69.07;99131.67;119836;1151;104587;-69
2021/01/17 13:33:41;;;;;;;57.75;24.40;;;;;;;-6.54;69.94;99123.91;119899;1151;104346;-69
2021/01/17 13:36:08;;;;;;;52.13;24.10;;;;;;;-6.58;69.79;99131.67;119841;1151;104353;-70
2021/01/17 13:38:36;;;;;;;55.45;23.75;;;;;;;-6.58;69.61;99128.25;119423;1150;104465;-70
2021/01/17 13:41:03;;;;;;;58.23;22.93;;;;;;;-6.63;69.06;99133.41;119831;1149;104950;-68
2021/01/17 13:43:31;;;;;;;66.80;27.60;;;;;;;-6.64;69.00;99133.42;119844;1151;104396;-68
2021/01/17 13:46:02;;;;;;;80.73;33.73;;;;;;;-6.62;69.14;99131.70;119969;1151;104452;-69
2021/01/17 13:48:30;;;;;;;77.00;33.07;;;;;;;-6.66;69.74;99136.00;119922;1151;104524;-70
2021/01/17 13:50:57;;;;;;;74.97;32.90;;;;;;;-6.71;69.00;99142.06;119914;1150;104345;-70
2021/01/17 13:53:25;;;;;;;78.70;32.63;;;;;;;-6.73;69.45;99139.48;119898;1151;104430;-70
2021/01/17 13:55:52;;;;;;;92.70;38.83;;;;;;;-6.81;69.07;99138.63;119849;1151;104488;-69
2021/01/17 13:58:19;;;;;;;85.60;35.90;;;;;;;-6.82;69.64;99145.52;119905;1151;104406;-70
2021/01/17 14:00:47;;;;;;;92.40;39.67;;;;;;;-6.85;69.57;99142.92;119846;1151;104535;-69
2021/01/17 14:03:14;;;;;;;95.47;39.80;;;;;;;-6.90;69.28;99142.94;119866;1151;104420;-70
2021/01/17 14:05:40;;;;;;;92.82;40.38;;;;;;;-6.93;69.65;99144.69;119764;1151;104356;-70
2021/01/17 14:08:08;;;;;;;94.87;39.90;;;;;;;-6.94;69.61;99136.05;119616;1151;104508;-70
2021/01/17 14:10:35;;;;;;;90.37;37.53;;;;;;;-6.93;68.98;99147.27;119536;1150;104447;-71
2021/01/17 14:13:02;;;;;;;84.83;36.97;;;;;;;-6.92;68.86;99143.79;119689;1151;104609;-71
2021/01/17 14:15:29;;;;;;;86.27;36.40;;;;;;;-6.95;68.45;99146.41;119955;1151;104357;-68
2021/01/17 14:17:57;;;;;;;79.27;33.70;;;;;;;-6.94;68.89;99155.89;119959;1151;104455;-68
2021/01/17 14:20:26;;;;;;;74.17;32.73;;;;;;;-7.00;69.57;99158.47;119983;1150;104856;-70
2021/01/17 14:22:54;;;;;;;72.57;32.23;;;;;;;-7.05;69.65;99164.50;120057;1151;104609;-70
2021/01/17 14:25:22;;;;;;;71.73;30.17;;;;;;;-7.17;68.45;99161.91;120114;1151;104427;-70
2021/01/17 14:27:50;;;;;;;70.77;29.20;;;;;;;-7.22;68.95;99169.66;120101;1151;104439;-71
2021/01/17 14:30:18;;;;;;;79.20;33.50;;;;;;;-7.23;68.85;99180.87;119921;1150;104371;-71
2021/01/17 14:32:46;;;;;;;62.97;25.40;;;;;;;-7.25;69.41;99190.34;119970;1151;104462;-71
2021/01/17 14:35:13;;;;;;;71.50;29.40;;;;;;;-7.29;69.27;99190.31;120103;1151;104323;-70
2021/01/17 14:37:40;;;;;;;82.90;33.85;;;;;;;-7.38;68.53;99180.83;119928;1151;104441;-69
2021/01/17 14:40:08;;;;;;;82.57;34.40;;;;;;;-7.45;69.19;99184.26;119992;1151;104370;-70
2021/01/17 14:42:39;;;;;;;72.13;27.40;;;;;;;-7.49;69.27;99192.00;119907;1151;104436;-71
2021/01/17 14:45:07;;;;;;;92.10;36.70;;;;;;;-7.56;68.64;99198.03;119966;1151;104368;-72
2021/01/17 14:47:34;;;;;;;93.50;42.90;;;;;;;-7.53;69.70;99204.92;120053;1151;104521;-70
2021/01/17 14:50:03;;;;;;;103.07;41.50;;;;;;;-7.49;68.88;99212.67;119960;1151;104379;-71
2021/01/17 14:52:41;;;;;;;96.07;41.57;;;;;;;-7.48;69.52;99213.55;120044;1151;104345;-71
2021/01/17 14:55:09;;;;;;;104.67;44.13;;;;;;;-7.49;69.66;99212.67;119965;1151;104506;-71
2021/01/17 14:57:37;;;;;;;77.23;31.00;;;;;;;-7.50;69.37;99215.27;119764;1151;104452;-72
2021/01/17 15:00:07;;;;;;;102.93;42.20;;;;;;;-7.61;68.17;99220.41;120026;1151;104513;-73
2021/01/17 15:02:35;;;;;;;102.03;42.73;;;;;;;-7.63;69.24;99222.97;119995;1151;104348;-71
2021/01/17 15:05:03;;;;;;;110.95;48.30;;;;;;;-7.64;69.30;99228.14;120030;1149;104346;-72
2021/01/17 15:07:31;;;;;;;101.47;41.20;;;;;;;-7.66;69.33;99222.95;120046;1151;104383;-71
2021/01/17 15:09:58;;;;;;;106.63;43.50;;;;;;;-7.74;69.12;99234.97;120010;1151;104455;-72
2021/01/17 15:12:27;;;;;;;105.30;42.40;;;;;;;-7.76;69.36;99244.47;120013;1151;104617;-72
2021/01/17 15:14:54;;;;;;;104.60;41.50;;;;;;;-7.81;68.57;99247.01;119993;1151;105055;-71
2021/01/17 15:17:21;;;;;;;99.10;43.15;;;;;;;-7.81;68.39;99248.74;120013;1151;104582;-72
2021/01/17 15:19:48;;;;;;;104.33;42.90;;;;;;;-7.82;69.08;99252.18;120059;1151;104441;-72
2021/01/17 15:22:16;;;;;;;104.93;48.70;;;;;;;-7.81;68.03;99256.48;120063;1150;104487;-71
2021/01/17 15:24:43;;;;;;;117.77;44.93;;;;;;;-7.83;68.63;99253.03;120006;1151;104520;-71
2021/01/17 15:27:10;;;;;;;114.00;44.07;;;;;;;-7.82;68.53;99259.93;119559;1151;104390;-72
2021/01/17 15:29:37;;;;;;;110.65;45.08;;;;;;;-7.83;68.68;99265.95;119978;1151;104393;-72
2021/01/17 15:32:04;;;;;;;112.67;48.03;;;;;;;-7.81;68.74;99262.50;120069;1151;104371;-72
2021/01/17 15:34:31;;;;;;;112.70;45.90;;;;;;;-7.82;67.81;99265.09;119997;1151;104420;-74
2021/01/17 15:36:59;;;;;;;113.07;48.10;;;;;;;-7.88;68.46;99263.33;119948;1151;104979;-72
2021/01/17 15:39:26;;;;;;;114.50;47.47;;;;;;;-7.93;68.34;99258.15;119845;1151;104392;-71
2021/01/17 15:41:53;;;;;;;117.63;49.07;;;;;;;-7.99;67.81;99260.69;119869;1151;104420;-69
2021/01/17 15:44:22;;;;;;;122.10;50.07;;;;;;;-7.99;69.17;99270.17;119935;1148;104369;-69
2021/01/17 15:46:49;;;;;;;127.07;50.40;;;;;;;-8.00;69.18;99265.86;119799;1151;104423;-70
2021/01/17 15:49:16;;;;;;;121.40;51.83;;;;;;;-8.00;67.84;99261.55;119871;1151;104389;-70
2021/01/17 15:51:43;;;;;;;127.47;48.53;;;;;;;-8.02;69.19;99271.00;120039;1151;104347;-72
2021/01/17 15:54:09;;;;;;;273.17;112.57;;;;;;;-8.04;68.49;99261.53;120079;1151;104420;-69
2021/01/17 15:56:37;;;;;;;181.90;73.40;;;;;;;-8.06;68.08;99274.41;120151;1151;104371;-69
2021/01/17 15:59:04;;;;;;;128.20;55.00;;;;;;;-8.09;68.94;99283.02;120019;1151;105026;-72
2021/01/17 16:01:32;;;;;;;144.10;59.27;;;;;;;-8.13;68.33;99291.59;120059;1151;104419;-69
2021/01/17 16:03:59;;;;;;;147.07;59.27;;;;;;;-8.16;69.14;99288.99;119947;1151;104450;-71
2021/01/17 16:06:35;;;;;;;143.93;58.00;;;;;;;-8.22;68.25;99294.98;119972;1151;104487;-71
2021/01/17 16:09:06;;;;;;;139.43;56.90;;;;;;;-8.26;67.63;99297.52;120023;1151;104444;-70
2021/01/17 16:11:33;;;;;;;129.33;52.60;;;;;;;-8.29;67.89;99295.79;120049;1151;104445;-69
2021/01/17 16:14:01;;;;;;;127.77;51.33;;;;;;;-8.33;68.25;99301.78;119986;1151;104413;-68
2021/01/17 16:16:34;;;;;;;121.27;52.13;;;;;;;-8.37;67.57;99297.44;119945;1150;104444;-70
2021/01/17 16:19:02;;;;;;;133.13;55.57;;;;;;;-8.39;67.87;99304.31;120015;1151;104351;-70
2021/01/17 16:21:30;;;;;;;133.63;55.53;;;;;;;-8.46;68.65;99302.53;119961;1151;104361;-69
2021/01/17 16:23:57;;;;;;;137.17;54.23;;;;;;;-8.50;68.47;99304.27;119955;1150;104447;-69
2021/01/17 16:26:27;;;;;;;140.80;54.67;;;;;;;-8.55;67.58;99299.05;119995;1151;104423;-72
2021/01/17 16:28:54;;;;;;;133.07;54.50;;;;;;;-8.61;68.74;99293.86;120013;1151;104458;-71
2021/01/17 16:31:21;;;;;;;128.47;54.30;;;;;;;-8.67;67.75;99294.66;120005;1150;104447;-70
2021/01/17 16:33:49;;;;;;;138.77;53.60;;;;;;;-8.68;68.03;99294.66;119973;1151;104599;-71
2021/01/17 16:36:20;;;;;;;136.27;54.50;;;;;;;-8.74;67.77;99287.70;119962;1151;104442;-70
2021/01/17 16:38:47;;;;;;;133.87;51.53;;;;;;;-8.79;68.71;99289.41;119872;1150;104449;-70
2021/01/17 16:41:15;;;;;;;128.57;52.67;;;;;;;-8.86;68.57;99285.89;120031;1151;104445;-71
2021/01/17 16:43:42;;;;;;;117.40;49.37;;;;;;;-8.88;67.94;99291.89;120052;1150;104369;-71
2021/01/17 16:46:31;;;;;;;122.13;49.00;;;;;;;-8.95;68.51;99297.83;120025;1151;104509;-71
2021/01/17 16:49:00;;;;;;;122.40;52.40;;;;;;;-9.04;68.33;99296.89;120040;1151;104438;-69
2021/01/17 16:51:35;;;;;;;113.13;47.90;;;;;;;-9.09;68.46;99305.44;120041;1151;104353;-70
2021/01/17 16:54:02;;;;;;;99.80;39.67;;;;;;;-9.19;68.47;99315.63;119891;1151;104368;-69
2021/01/17 16:56:29;;;;;;;124.03;48.07;;;;;;;-9.34;68.41;99318.02;119778;1150;104372;-68
2021/01/17 16:58:57;;;;;;;117.82;46.35;;;;;;;-9.41;68.03;99324.83;119884;1151;104605;-70
2021/01/17 17:01:44;;;;;;;103.03;42.70;;;;;;;-9.46;67.92;99321.33;119983;1151;104369;-69
2021/01/17 17:04:12;;;;;;;76.33;28.97;;;;;;;-9.52;67.47;99321.25;119979;1151;104548;-70
2021/01/17 17:06:39;;;;;;;100.23;41.87;;;;;;;-9.59;67.98;99333.19;119991;1151;104370;-72
2021/01/17 17:09:07;;;;;;;98.35;41.25;;;;;;;-9.61;67.54;99333.19;119925;1151;104350;-70
2021/01/17 17:11:35;;;;;;;104.90;40.70;;;;;;;-9.60;68.13;99339.18;120029;1151;105013;-70
2021/01/17 17:14:02;;;;;;;99.77;38.53;;;;;;;-9.57;67.64;99337.50;119925;1151;104430;-69
2021/01/17 17:16:33;;;;;;;101.27;43.13;;;;;;;-9.58;68.54;99348.64;119861;1151;104444;-71
2021/01/17 17:19:01;;;;;;;99.40;43.40;;;;;;;-9.56;68.44;99346.11;119953;1150;104429;-71
2021/01/17 17:21:31;;;;;;;107.17;42.93;;;;;;;-9.52;67.83;99347.00;119997;1151;104423;-71
2021/01/17 17:24:03;;;;;;;111.70;44.83;;;;;;;-9.46;68.01;99353.11;120010;1151;104497;-70
2021/01/17 17:26:33;;;;;;;98.95;40.15;;;;;;;-9.45;68.37;99357.42;119930;1151;104460;-70
2021/01/17 17:29:02;;;;;;;104.03;41.20;;;;;;;-9.44;68.36;99354.00;119995;1151;104818;-73
2021/01/17 17:31:29;;;;;;;109.35;42.05;;;;;;;-9.44;68.04;99354.00;120038;1151;104896;-73
2021/01/17 17:33:57;;;;;;;111.57;44.43;;;;;;;-9.43;68.37;99354.85;119963;1151;104452;-71
2021/01/17 17:36:24;;;;;;;100.00;41.57;;;;;;;-9.45;68.06;99348.81;119946;1151;104510;-71
2021/01/17 17:38:52;;;;;;;110.67;46.90;;;;;;;-9.46;68.33;99355.69;119894;1151;104377;-71
2021/01/17 17:41:19;;;;;;;114.40;45.30;;;;;;;-9.47;67.72;99371.11;119978;1151;104448;-70
2021/01/17 17:43:46;;;;;;;102.93;39.33;;;;;;;-9.49;68.63;99360.80;119909;1151;104406;-71
2021/01/17 17:46:20;;;;;;;97.80;36.80;;;;;;;-9.54;68.42;99359.88;119808;1151;104429;-71
2021/01/17 17:48:47;;;;;;;95.03;40.23;;;;;;;-9.58;67.36;99361.52;119850;1151;104360;-69
2021/01/17 17:51:15;;;;;;;105.20;41.03;;;;;;;-9.58;67.48;99361.52;119951;1151;104436;-71
2021/01/17 17:53:42;;;;;;;91.87;35.70;;;;;;;-9.64;66.91;99361.47;119935;1151;104368;-68
2021/01/17 17:56:11;;;;;;;96.40;39.27;;;;;;;-9.67;68.03;99348.55;119858;1151;104509;-72
2021/01/17 17:58:39;;;;;;;85.60;33.33;;;;;;;-9.66;67.59;99352.85;119892;1151;104471;-72
2021/01/17 18:01:06;;;;;;;90.77;36.70;;;;;;;-9.67;67.33;99351.13;119964;1150;104371;-70
2021/01/17 18:03:34;;;;;;;81.73;33.83;;;;;;;-9.68;66.87;99344.24;119897;1151;104355;-70
2021/01/17 18:06:02;;;;;;;88.60;34.90;;;;;;;-9.67;67.75;99342.52;120012;1151;104470;-71
2021/01/17 18:08:33;;;;;;;87.67;34.80;;;;;;;-9.68;68.09;99339.09;119939;1151;104440;-71
2021/01/17 18:11:01;;;;;;;88.67;34.43;;;;;;;-9.73;67.00;99345.89;119956;1151;104514;-73
2021/01/17 18:13:29;;;;;;;70.07;28.20;;;;;;;-9.76;67.83;99346.69;120016;1151;104605;-69
2021/01/17 18:15:58;;;;;;;89.57;33.70;;;;;;;-9.77;67.48;99342.38;120004;1150;104410;-70
2021/01/17 18:18:26;;;;;;;74.67;29.00;;;;;;;-9.74;68.04;99347.58;119622;1151;104418;-70
2021/01/17 18:20:53;;;;;;;67.23;26.63;;;;;;;-9.79;67.92;99340.64;119845;1151;104429;-71
2021/01/17 18:23:21;;;;;;;67.07;26.73;;;;;;;-9.82;67.35;99341.48;119932;1151;104367;-70
2021/01/17 18:25:48;;;;;;;75.60;30.67;;;;;;;-9.75;67.36;99345.00;120006;1151;104420;-70
2021/01/17 18:28:15;;;;;;;65.13;27.07;;;;;;;-9.61;68.59;99355.48;119981;1151;104713;-71
2021/01/17 18:30:42;;;;;;;75.47;28.93;;;;;;;-9.60;67.70;99358.09;119911;1151;104451;-71
2021/01/17 18:33:13;;;;;;;73.23;30.17;;;;;;;-9.61;68.50;99352.91;119996;1151;104423;-71
2021/01/17 18:35:42;;;;;;;67.33;27.07;;;;;;;-9.62;67.41;99349.48;120012;1151;104444;-71
2021/01/17 18:38:09;;;;;;;62.57;24.53;;;;;;;-9.64;68.26;99352.86;119990;1151;104618;-72
2021/01/17 18:40:36;;;;;;;61.33;22.23;;;;;;;-9.70;67.05;99353.66;120013;1151;104458;-71
2021/01/17 18:43:03;;;;;;;75.67;29.33;;;;;;;-9.72;67.67;99352.77;120049;1151;104423;-70
2021/01/17 18:45:30;;;;;;;77.40;31.83;;;;;;;-9.69;68.41;99360.53;120008;1151;104377;-72
2021/01/17 18:48:00;;;;;;;82.23;32.13;;;;;;;-9.63;68.04;99370.05;120033;1151;104348;-69
2021/01/17 18:50:28;;;;;;;81.13;33.63;;;;;;;-9.60;67.27;99375.23;120063;1151;104592;-70
2021/01/17 18:52:56;;;;;;;79.17;31.63;;;;;;;-9.61;68.06;99376.08;119955;1151;104376;-71
2021/01/17 18:55:26;;;;;;;85.10;34.43;;;;;;;-9.55;67.22;99375.28;120065;1151;104420;-70
2021/01/17 18:57:54;;;;;;;83.30;35.40;;;;;;;-9.48;67.67;99372.84;120052;1149;104415;-71
2021/01/17 19:00:25;;;;;;;93.13;36.03;;;;;;;-9.42;68.58;99374.61;120043;1151;104420;-70
2021/01/17 19:02:57;;;;;;;84.53;32.47;;;;;;;-9.36;68.39;99368.66;120009;1149;104452;-72
2021/01/17 19:05:26;;;;;;;82.10;31.70;;;;;;;-9.33;67.17;99366.13;120043;1151;104446;-72
2021/01/17 19:07:54;;;;;;;76.67;32.27;;;;;;;-9.32;67.49;99379.05;120074;1151;104369;-70
2021/01/17 19:10:22;;;;;;;84.60;31.47;;;;;;;-9.36;67.26;99366.97;119968;1151;104445;-71
2021/01/17 19:12:50;;;;;;;77.13;31.33;;;;;;;-9.32;67.50;99367.86;120077;1151;104354;-73
2021/01/17 19:15:18;;;;;;;83.80;32.03;;;;;;;-9.28;67.72;99369.63;120065;1151;104497;-72
2021/01/17 19:17:49;;;;;;;59.23;24.02;;;;;;;-9.37;67.37;99359.23;120007;1151;104345;-72
2021/01/17 19:20:16;;;;;;;67.03;25.63;;;;;;;-9.44;67.35;99358.27;120077;1151;104489;-72
2021/01/17 19:22:43;;;;;;;60.23;24.00;;;;;;;-9.39;67.61;99359.20;120034;1151;104558;-74
2021/01/17 19:25:14;;;;;;;55.27;21.23;;;;;;;-9.32;68.48;99357.55;120051;1151;104446;-71
2021/01/17 19:27:42;;;;;;;56.80;21.53;;;;;;;-9.39;67.81;99358.35;120093;1151;104343;-71
2021/01/17 19:30:10;;;;;;;57.87;22.43;;;;;;;-9.40;68.33;99364.34;119963;1150;104468;-72
2021/01/17 19:32:37;;;;;;;53.13;18.30;;;;;;;-9.37;67.49;99372.12;120051;1151;104348;-72
2021/01/17 19:35:05;;;;;;;52.30;21.17;;;;;;;-9.46;67.72;99383.14;120029;1151;104433;-72
2021/01/17 19:37:32;;;;;;;52.47;21.10;;;;;;;-9.49;67.57;99385.67;120034;1151;104374;-72
2021/01/17 19:39:59;;;;;;;57.60;24.03;;;;;;;-9.55;67.97;99391.63;120014;1151;104528;-71
2021/01/17 19:42:26;;;;;;;62.50;25.43;;;;;;;-9.52;67.87;99386.52;119945;1151;104471;-71
2021/01/17 19:44:53;;;;;;;70.47;26.07;;;;;;;-9.52;68.17;99393.36;120018;1151;104856;-72
2021/01/17 19:47:20;;;;;;;75.07;28.93;;;;;;;-9.55;67.78;99388.16;120011;1151;104444;-72
2021/01/17 19:49:48;;;;;;;72.77;29.47;;;;;;;-9.57;66.99;99396.73;120115;1151;104528;-73
2021/01/17 19:52:15;;;;;;;78.30;32.70;;;;;;;-9.57;66.90;99401.03;120050;1151;104589;-72
2021/01/17 19:54:42;;;;;;;74.20;30.08;;;;;;;-9.64;67.85;99404.36;120080;1151;104376;-73
2021/01/17 19:57:10;;;;;;;82.30;30.20;;;;;;;-9.67;67.14;99404.31;119976;1151;104452;-73
2021/01/17 19:59:37;;;;;;;74.70;29.20;;;;;;;-9.71;67.58;99408.56;119982;1151;104477;-72
2021/01/17 20:02:04;;;;;;;77.57;29.13;;;;;;;-9.73;66.90;99405.10;119966;1151;104353;-72
2021/01/17 20:04:32;;;;;;;77.45;30.88;;;;;;;-9.76;67.62;99405.05;119972;1151;104375;-73
2021/01/17 20:06:58;;;;;;;66.93;25.97;;;;;;;-9.76;67.57;99400.75;119996;1151;104444;-70
2021/01/17 20:09:25;;;;;;;65.15;26.12;;;;;;;-9.72;68.03;99406.84;119944;1151;104537;-71
2021/01/17 20:11:52;;;;;;;59.73;26.10;;;;;;;-9.72;67.72;99412.84;119966;1151;103298;-70
2021/01/17 20:14:19;;;;;;;61.53;23.97;;;;;;;-9.76;67.67;99408.48;120115;1148;104350;-70
2021/01/17 20:16:47;;;;;;;58.10;22.63;;;;;;;-9.75;66.90;99411.94;119999;1151;104396;-71